Weather at Njoro Country Club Airport

Public forecast

Using degrees Celsius for public forecast. Weather courtesy of forecast.io.

Closest aviation weather report (METAR) to Njoro Country Club Airport

Closest report is Nakuru Airport, 14.7 nm (27.2 km) E.

2022/12/04 05:00 (retrieved 1 hour ago)

HKNK 040500Z 00000KT CAVOK 17/12

Closest aviation forecast (TAF) to Njoro Country Club Airport

Closest forecast is Eldoret International Airport, 60.3 nm (111.7 km) NW.

2022/12/04 06:54 (retrieved 0 seconds ago)

TAF TAF HKEL 040500Z 0406/0512 12010KT 9999 FEW020 PROB30 0410/0414 -TSRA FEW024CB BECMG 0420/0423 CAVOK BECMG 0504/0507 9999 FEW023CB